createdAt,value
2019-05-01T00:01:00.250Z,13.90
2019-05-01T00:03:30.242Z,13.93
2019-05-01T00:06:01.511Z,13.89
2019-05-01T00:08:31.259Z,13.98
2019-05-01T00:11:00.960Z,13.99
2019-05-01T00:13:30.712Z,14.14
2019-05-01T00:16:00.696Z,13.79
2019-05-01T00:18:31.426Z,13.76
2019-05-01T00:21:01.075Z,13.70
2019-05-01T00:23:30.843Z,13.85
2019-05-01T00:26:00.712Z,13.79
2019-05-01T00:28:30.449Z,13.64
2019-05-01T00:31:00.563Z,13.78
2019-05-01T00:33:32.223Z,13.93
2019-05-01T00:36:01.939Z,13.89
2019-05-01T00:38:31.468Z,13.83
2019-05-01T00:41:01.330Z,13.75
2019-05-01T00:43:30.988Z,13.93
2019-05-01T00:46:00.834Z,13.85
2019-05-01T00:48:30.566Z,13.61
2019-05-01T00:51:00.296Z,13.79
2019-05-01T00:53:30.071Z,13.66
2019-05-01T00:56:17.737Z,13.94
2019-05-01T00:58:47.180Z,13.76
2019-05-01T01:01:34.150Z,13.86
2019-05-01T01:04:04.698Z,13.74
2019-05-01T01:06:34.497Z,13.63
2019-05-01T01:09:06.849Z,13.49
2019-05-01T01:11:36.516Z,13.63
2019-05-01T01:14:07.188Z,13.65
2019-05-01T01:16:37.277Z,13.64
2019-05-01T01:19:07.012Z,13.79
2019-05-01T01:21:36.641Z,13.90
2019-05-01T01:24:06.688Z,13.88
2019-05-01T01:26:36.425Z,13.78
2019-05-01T01:29:06.113Z,13.82
2019-05-01T01:31:35.922Z,13.84
2019-05-01T01:34:06.122Z,13.85
2019-05-01T01:36:35.840Z,13.67
2019-05-01T01:39:07.658Z,13.71
2019-05-01T01:41:37.449Z,13.39
2019-05-01T01:44:09.156Z,13.34
2019-05-01T01:46:40.529Z,13.46
2019-05-01T01:49:10.389Z,13.29
2019-05-01T01:51:40.066Z,13.35
2019-05-01T01:54:14.401Z,13.50
2019-05-01T01:56:45.696Z,13.32
2019-05-01T01:59:18.565Z,13.22
2019-05-01T02:01:52.701Z,13.44
2019-05-01T02:04:40.155Z,13.60
2019-05-01T02:07:09.821Z,13.42
2019-05-01T02:09:39.566Z,13.32
2019-05-01T02:12:09.592Z,12.92
2019-05-01T02:14:39.280Z,12.81
2019-05-01T02:17:08.840Z,13.00
2019-05-01T02:19:38.659Z,12.89
2019-05-01T02:22:08.226Z,12.92
2019-05-01T02:24:37.999Z,13.02
2019-05-01T02:27:15.405Z,13.02
2019-05-01T02:29:50.306Z,12.81
2019-05-01T02:32:22.273Z,13.00
2019-05-01T02:34:53.522Z,13.17
2019-05-01T02:37:25.896Z,13.29
2019-05-01T02:39:57.687Z,13.19
2019-05-01T02:42:30.294Z,12.89
2019-05-01T02:45:04.277Z,12.90
2019-05-01T02:47:36.824Z,13.09
2019-05-01T02:50:12.133Z,13.07
2019-05-01T02:52:44.669Z,13.15
2019-05-01T02:55:25.301Z,13.18
2019-05-01T02:57:55.575Z,13.32
2019-05-01T03:00:26.418Z,13.46
2019-05-01T03:02:56.589Z,13.22
2019-05-01T03:05:26.323Z,13.29
2019-05-01T03:07:56.118Z,13.28
2019-05-01T03:10:25.847Z,13.17
2019-05-01T03:12:58.311Z,13.09
2019-05-01T03:15:31.265Z,12.94
2019-05-01T03:18:04.557Z,12.86
2019-05-01T03:20:38.404Z,12.86
2019-05-01T03:23:16.528Z,12.59
2019-05-01T03:25:46.229Z,12.75
2019-05-01T03:28:16.197Z,12.96
2019-05-01T03:30:45.912Z,12.79
2019-05-01T03:33:15.573Z,12.61
2019-05-01T03:35:45.331Z,12.68
2019-05-01T03:38:15.289Z,12.66
2019-05-01T03:40:45.061Z,12.68
2019-05-01T03:43:14.756Z,12.93
2019-05-01T03:45:45.226Z,12.65
2019-05-01T03:48:14.992Z,12.82
2019-05-01T03:50:47.185Z,13.04
2019-05-01T03:53:16.862Z,12.91
2019-05-01T03:55:46.773Z,12.87
2019-05-01T03:58:16.615Z,13.10
2019-05-01T04:00:47.920Z,12.94
2019-05-01T04:03:24.820Z,12.95
2019-05-01T04:05:55.028Z,12.98
2019-05-01T04:08:25.663Z,12.92
2019-05-01T04:10:56.645Z,13.22
2019-05-01T04:13:26.486Z,13.31
2019-05-01T04:15:57.244Z,13.08
2019-05-01T04:18:27.919Z,12.86
2019-05-01T04:20:57.861Z,12.91
2019-05-01T04:23:27.652Z,12.78
2019-05-01T04:25:57.435Z,12.98
2019-05-01T04:28:30.298Z,13.00
2019-05-01T04:31:17.937Z,13.03
2019-05-01T04:33:52.126Z,12.84
2019-05-01T04:36:23.840Z,12.67
2019-05-01T04:38:53.918Z,12.86
2019-05-01T04:41:23.644Z,12.67
2019-05-01T04:43:53.539Z,12.69
2019-05-01T04:46:23.840Z,12.78
2019-05-01T04:48:54.133Z,12.99
2019-05-01T04:51:23.803Z,13.18
2019-05-01T04:53:53.509Z,13.15
2019-05-01T04:56:23.868Z,13.27
2019-05-01T04:58:54.042Z,13.43
2019-05-01T05:01:24.062Z,13.18
2019-05-01T05:03:54.089Z,13.20
2019-05-01T05:06:23.981Z,13.00
2019-05-01T05:08:53.934Z,12.68
2019-05-01T05:11:25.505Z,12.47
2019-05-01T05:14:08.986Z,12.64
2019-05-01T05:16:55.652Z,12.72
2019-05-01T05:19:25.419Z,12.74
2019-05-01T05:21:55.333Z,12.85
2019-05-01T05:24:25.198Z,12.93
2019-05-01T05:26:55.553Z,12.93
2019-05-01T05:29:26.609Z,12.98
2019-05-01T05:31:58.381Z,13.07
2019-05-01T05:34:28.438Z,12.81
2019-05-01T05:37:01.254Z,13.10
2019-05-01T05:39:43.203Z,13.12
2019-05-01T05:42:14.331Z,13.24
2019-05-01T05:44:46.285Z,13.24
2019-05-01T05:47:16.457Z,13.13
2019-05-01T05:49:46.733Z,12.85
2019-05-01T05:52:37.537Z,12.90
2019-05-01T05:55:27.755Z,13.18
2019-05-01T05:58:01.511Z,13.27
2019-05-01T06:00:43.073Z,13.19
2019-05-01T06:03:35.185Z,13.12
2019-05-01T06:06:12.349Z,13.18
2019-05-01T06:08:44.685Z,13.16
2019-05-01T06:11:21.743Z,13.33
2019-05-01T06:13:58.780Z,13.42
2019-05-01T06:16:35.887Z,13.61
2019-05-01T06:19:14.567Z,13.18
2019-05-01T06:21:43.985Z,12.95
2019-05-01T06:24:18.224Z,12.85
2019-05-01T06:26:48.190Z,12.91
2019-05-01T06:29:18.038Z,13.15
2019-05-01T06:31:47.847Z,13.12
2019-05-01T06:34:17.656Z,13.08
2019-05-01T06:36:49.612Z,13.45
2019-05-01T06:39:19.083Z,13.27
2019-05-01T06:41:49.206Z,13.14
2019-05-01T06:44:20.845Z,13.27
2019-05-01T06:47:09.253Z,12.78
2019-05-01T06:49:44.842Z,12.68
2019-05-01T06:52:17.172Z,12.60
2019-05-01T06:54:47.791Z,12.88
2019-05-01T06:57:18.575Z,12.94
2019-05-01T06:59:49.670Z,13.22
2019-05-01T07:02:19.911Z,13.10
2019-05-01T07:04:51.205Z,13.32
2019-05-01T07:07:25.898Z,13.15
2019-05-01T07:09:56.404Z,12.97
2019-05-01T07:12:31.409Z,12.86
2019-05-01T07:15:02.439Z,12.88
2019-05-01T07:17:32.338Z,13.00
2019-05-01T07:20:11.955Z,12.96
2019-05-01T07:22:42.216Z,13.20
2019-05-01T07:25:12.569Z,12.96
2019-05-01T07:27:42.413Z,13.42
2019-05-01T07:30:19.605Z,13.57
2019-05-01T07:32:48.474Z,13.70
2019-05-01T07:35:18.640Z,13.59
2019-05-01T07:37:48.494Z,13.96
2019-05-01T07:40:20.787Z,14.07
2019-05-01T07:42:54.268Z,13.96
2019-05-01T07:45:38.977Z,14.23
2019-05-01T07:48:07.008Z,14.29
2019-05-01T07:50:37.041Z,14.40
2019-05-01T07:53:07.110Z,14.50
2019-05-01T07:55:38.841Z,14.05
2019-05-01T07:58:16.023Z,14.37
2019-05-01T08:00:48.257Z,14.12
2019-05-01T08:03:17.936Z,14.44
2019-05-01T08:05:47.696Z,14.89
2019-05-01T08:08:17.664Z,14.81
2019-05-01T08:10:47.436Z,14.64
2019-05-01T08:13:17.539Z,14.50
2019-05-01T08:15:47.385Z,14.57
2019-05-01T08:18:18.690Z,14.37
2019-05-01T08:20:53.116Z,14.46
2019-05-01T08:23:23.241Z,14.28
2019-05-01T08:25:52.895Z,14.39
2019-05-01T08:28:40.191Z,14.51
2019-05-01T08:31:29.704Z,14.93
2019-05-01T08:34:06.981Z,14.74
2019-05-01T08:36:36.675Z,14.82
2019-05-01T08:39:09.140Z,14.48
2019-05-01T08:41:40.155Z,14.45
2019-05-01T08:44:09.899Z,14.88
2019-05-01T08:46:53.323Z,14.59
2019-05-01T08:49:29.077Z,14.54
2019-05-01T08:51:58.953Z,14.43
2019-05-01T08:54:33.160Z,14.90
2019-05-01T08:57:00.148Z,15.22
2019-05-01T08:59:31.571Z,15.48
2019-05-01T09:02:09.355Z,15.26
2019-05-01T09:04:32.940Z,15.29
2019-05-01T09:07:02.648Z,15.47
2019-05-01T09:09:33.438Z,15.47
2019-05-01T09:12:06.960Z,15.41
2019-05-01T09:14:36.859Z,15.29
2019-05-01T09:17:06.712Z,15.38
2019-05-01T09:19:36.416Z,15.53
2019-05-01T09:22:07.660Z,15.61
2019-05-01T09:24:37.381Z,16.04
2019-05-01T09:27:09.815Z,15.95
2019-05-01T09:29:41.379Z,16.23
2019-05-01T09:32:11.985Z,16.54
2019-05-01T09:34:49.037Z,17.08
2019-05-01T09:37:18.741Z,16.99
2019-05-01T09:39:48.404Z,16.94
2019-05-01T09:42:23.513Z,16.92
2019-05-01T09:44:49.644Z,17.24
2019-05-01T09:47:19.737Z,16.74
2019-05-01T09:49:54.036Z,16.98
2019-05-01T09:52:24.577Z,16.72
2019-05-01T09:55:08.110Z,16.43
2019-05-01T09:57:41.420Z,16.38
2019-05-01T10:00:10.985Z,16.13
2019-05-01T10:02:42.137Z,16.55
2019-05-01T10:05:12.261Z,16.46
2019-05-01T10:07:42.077Z,16.79
2019-05-01T10:10:12.288Z,17.29
2019-05-01T10:12:47.028Z,17.20
2019-05-01T10:15:14.429Z,17.28
2019-05-01T10:17:44.268Z,17.59
2019-05-01T10:20:15.010Z,18.18
2019-05-01T10:22:45.302Z,18.13
2019-05-01T10:25:15.743Z,18.48
2019-05-01T10:27:52.761Z,19.07
2019-05-01T10:30:25.793Z,19.01
2019-05-01T10:33:03.012Z,19.24
2019-05-01T10:35:42.709Z,19.14
2019-05-01T10:38:09.471Z,18.97
2019-05-01T10:40:39.919Z,18.99
2019-05-01T10:43:12.881Z,19.10
2019-05-01T10:45:42.643Z,19.23
2019-05-01T10:48:12.407Z,19.03
2019-05-01T10:50:42.211Z,19.06
2019-05-01T10:53:11.911Z,18.81
2019-05-01T10:55:41.558Z,19.03
2019-05-01T10:58:12.688Z,18.76
2019-05-01T11:00:44.428Z,18.31
2019-05-01T11:03:14.578Z,18.42
2019-05-01T11:05:55.582Z,18.97
2019-05-01T11:08:18.230Z,19.38
2019-05-01T11:10:48.061Z,19.65
2019-05-01T11:13:17.944Z,20.26
2019-05-01T11:15:48.058Z,20.52
2019-05-01T11:18:17.820Z,20.60
2019-05-01T11:20:48.118Z,20.68
2019-05-01T11:23:23.276Z,20.10
2019-05-01T11:25:52.364Z,20.36
2019-05-01T11:28:22.115Z,20.51
2019-05-01T11:30:51.979Z,20.59
2019-05-01T11:33:29.190Z,20.90
2019-05-01T11:36:09.216Z,21.22
2019-05-01T11:38:37.515Z,21.22
2019-05-01T11:41:08.897Z,21.23
2019-05-01T11:43:38.641Z,20.77
2019-05-01T11:46:08.631Z,21.34
2019-05-01T11:48:38.350Z,21.11
2019-05-01T11:51:08.521Z,20.51
2019-05-01T11:53:40.316Z,20.82
2019-05-01T11:56:10.259Z,21.01
2019-05-01T11:58:40.170Z,21.25
2019-05-01T12:01:11.588Z,21.48
2019-05-01T12:03:41.369Z,20.60
2019-05-01T12:06:22.315Z,20.71
2019-05-01T12:08:42.519Z,20.45
2019-05-01T12:11:13.469Z,20.68
2019-05-01T12:13:44.217Z,20.37
2019-05-01T12:16:16.208Z,20.75
2019-05-01T12:18:46.164Z,21.38
2019-05-01T12:21:16.114Z,21.48
2019-05-01T12:23:46.079Z,21.42
2019-05-01T12:26:15.799Z,20.96
2019-05-01T12:28:45.577Z,21.12
2019-05-01T12:31:16.263Z,21.28
2019-05-01T12:33:46.760Z,21.74
2019-05-01T12:36:16.787Z,21.80
2019-05-01T12:39:06.305Z,21.44
2019-05-01T12:41:37.790Z,21.22
2019-05-01T12:44:07.568Z,20.76
2019-05-01T12:46:39.002Z,20.86
2019-05-01T12:49:08.878Z,21.50
2019-05-01T12:51:40.324Z,21.91
2019-05-01T12:54:16.275Z,21.91
2019-05-01T12:56:56.876Z,21.55
2019-05-01T12:59:26.680Z,21.57
2019-05-01T13:01:56.558Z,20.84
2019-05-01T13:04:26.263Z,21.45
2019-05-01T13:06:58.963Z,21.28
2019-05-01T13:09:28.806Z,20.96
2019-05-01T13:11:58.637Z,20.78
2019-05-01T13:14:28.595Z,21.15
2019-05-01T13:16:58.615Z,20.81
2019-05-01T13:19:28.295Z,21.28
2019-05-01T13:21:58.002Z,21.76
2019-05-01T13:24:27.911Z,21.35
2019-05-01T13:27:05.173Z,21.11
2019-05-01T13:29:36.627Z,20.80
2019-05-01T13:32:12.203Z,20.72
2019-05-01T13:34:42.079Z,20.79
2019-05-01T13:37:12.497Z,20.90
2019-05-01T13:39:43.959Z,20.70
2019-05-01T13:42:14.070Z,20.61
2019-05-01T13:44:43.925Z,20.99
2019-05-01T13:47:14.258Z,20.83
2019-05-01T13:49:44.055Z,20.78
2019-05-01T13:52:15.369Z,20.63
2019-05-01T13:54:45.490Z,20.28
2019-05-01T13:57:15.635Z,20.51
2019-05-01T13:59:45.726Z,20.62
2019-05-01T14:02:19.021Z,20.48
2019-05-01T14:04:49.014Z,20.41
2019-05-01T14:07:19.606Z,20.14
2019-05-01T14:09:49.497Z,20.29
2019-05-01T14:12:19.398Z,20.43
2019-05-01T14:14:53.318Z,20.82
2019-05-01T14:17:23.769Z,21.06
2019-05-01T14:19:58.266Z,20.95
2019-05-01T14:22:36.060Z,20.79
2019-05-01T14:25:09.639Z,20.63
2019-05-01T14:27:39.708Z,20.69
2019-05-01T14:30:10.826Z,20.32
2019-05-01T14:32:40.458Z,20.57
2019-05-01T14:35:12.907Z,20.24
2019-05-01T14:37:42.907Z,20.11
2019-05-01T14:40:12.997Z,20.12
2019-05-01T14:42:42.765Z,19.71
2019-05-01T14:45:13.838Z,19.37
2019-05-01T14:47:43.614Z,19.36
2019-05-01T14:50:13.382Z,19.22
2019-05-01T14:52:43.346Z,19.32
2019-05-01T14:55:13.242Z,19.74
2019-05-01T14:57:43.072Z,19.66
2019-05-01T15:00:15.108Z,19.54
2019-05-01T15:02:45.046Z,18.92
2019-05-01T15:05:15.695Z,19.12
2019-05-01T15:07:45.579Z,19.24
2019-05-01T15:10:15.692Z,19.36
2019-05-01T15:12:47.317Z,19.89
2019-05-01T15:15:22.100Z,19.45
2019-05-01T15:18:09.759Z,19.28
2019-05-01T15:20:39.661Z,19.20
2019-05-01T15:23:09.582Z,19.30
2019-05-01T15:25:39.326Z,19.02
2019-05-01T15:28:09.164Z,18.97
2019-05-01T15:30:38.902Z,18.53
2019-05-01T15:33:08.731Z,18.66
2019-05-01T15:35:38.652Z,18.51
2019-05-01T15:38:08.482Z,18.60
2019-05-01T15:40:54.805Z,18.78
2019-05-01T15:43:26.186Z,18.65
2019-05-01T15:46:22.434Z,18.72
2019-05-01T15:48:52.446Z,18.86
2019-05-01T15:51:22.310Z,18.80
2019-05-01T15:53:54.257Z,18.36
2019-05-01T15:56:24.014Z,18.40
2019-05-01T15:58:53.885Z,18.31
2019-05-01T16:01:25.153Z,18.45
2019-05-01T16:03:54.816Z,18.64
2019-05-01T16:06:24.488Z,18.64
2019-05-01T16:08:54.277Z,18.64
2019-05-01T16:11:28.645Z,18.23
2019-05-01T16:13:58.438Z,18.11
2019-05-01T16:16:29.684Z,17.82
2019-05-01T16:19:00.675Z,17.99
2019-05-01T16:21:30.389Z,17.91
2019-05-01T16:24:00.099Z,18.05
2019-05-01T16:26:29.825Z,18.02
2019-05-01T16:28:59.492Z,17.90
2019-05-01T16:31:31.432Z,17.99
2019-05-01T16:34:01.518Z,17.88
2019-05-01T16:36:33.434Z,17.96
2019-05-01T16:39:06.129Z,17.90
2019-05-01T16:41:36.028Z,17.95
2019-05-01T16:44:05.803Z,17.86
2019-05-01T16:46:37.628Z,17.79
2019-05-01T16:49:09.013Z,17.80
2019-05-01T16:51:38.794Z,17.75
2019-05-01T16:54:09.419Z,16.99
2019-05-01T16:56:39.408Z,17.32
2019-05-01T16:59:09.481Z,16.99
2019-05-01T17:01:41.595Z,16.88
2019-05-01T17:04:29.232Z,16.86
2019-05-01T17:07:16.564Z,16.51
2019-05-01T17:09:51.184Z,16.50
2019-05-01T17:12:22.648Z,16.14
2019-05-01T17:14:52.499Z,16.35
2019-05-01T17:17:24.635Z,16.25
2019-05-01T17:19:56.243Z,16.40
2019-05-01T17:22:26.022Z,16.08
2019-05-01T17:24:55.938Z,15.94
2019-05-01T17:27:25.776Z,16.10
2019-05-01T17:29:55.439Z,16.28
2019-05-01T17:32:25.256Z,16.34
2019-05-01T17:34:55.304Z,16.05
2019-05-01T17:37:25.151Z,16.01
2019-05-01T17:39:59.437Z,15.90
2019-05-01T17:42:32.956Z,15.79
2019-05-01T17:45:01.272Z,15.59
2019-05-01T17:47:31.068Z,15.46
2019-05-01T17:50:03.759Z,15.27
2019-05-01T17:52:33.742Z,15.53
2019-05-01T17:55:04.175Z,15.67
2019-05-01T17:57:34.096Z,15.60
2019-05-01T18:00:25.656Z,15.53
2019-05-01T18:03:00.234Z,15.23
2019-05-01T18:05:38.602Z,15.37
2019-05-01T18:08:08.398Z,15.29
2019-05-01T18:10:38.647Z,15.39
2019-05-01T18:13:09.598Z,15.47
2019-05-01T18:15:39.983Z,15.34
2019-05-01T18:18:10.645Z,15.17
2019-05-01T18:20:41.413Z,15.04
2019-05-01T18:23:13.548Z,14.98
2019-05-01T18:25:54.575Z,15.03
2019-05-01T18:28:34.771Z,15.21
2019-05-01T18:31:06.109Z,15.21
2019-05-01T18:33:39.097Z,14.83
2019-05-01T18:36:09.442Z,14.83
2019-05-01T18:38:58.966Z,14.88
2019-05-01T18:41:30.484Z,15.02
2019-05-01T18:44:00.404Z,14.91
2019-05-01T18:46:30.653Z,14.85
2019-05-01T18:49:00.776Z,14.65
2019-05-01T18:51:30.649Z,14.65
2019-05-01T18:54:03.354Z,14.52
2019-05-01T18:56:38.104Z,14.36
2019-05-01T18:59:05.588Z,14.38
2019-05-01T19:01:35.543Z,14.27
2019-05-01T19:04:07.146Z,14.44
2019-05-01T19:06:41.274Z,14.58
2019-05-01T19:09:15.069Z,14.69
2019-05-01T19:11:43.382Z,14.36
2019-05-01T19:14:13.400Z,14.18
2019-05-01T19:16:45.369Z,14.28
2019-05-01T19:19:16.520Z,13.78
2019-05-01T19:21:48.380Z,13.92
2019-05-01T19:24:20.524Z,13.99
2019-05-01T19:26:51.216Z,14.11
2019-05-01T19:29:20.997Z,14.12
2019-05-01T19:31:50.690Z,13.98
2019-05-01T19:34:21.119Z,13.86
2019-05-01T19:36:51.579Z,13.98
2019-05-01T19:39:21.694Z,14.19
2019-05-01T19:41:54.554Z,14.14
2019-05-01T19:44:24.059Z,13.85
2019-05-01T19:46:53.837Z,13.67
2019-05-01T19:49:24.493Z,13.32
2019-05-01T19:52:00.530Z,13.42
2019-05-01T19:54:29.814Z,13.63
2019-05-01T19:57:00.123Z,13.60
2019-05-01T19:59:29.971Z,13.09
2019-05-01T20:01:59.801Z,13.33
2019-05-01T20:04:29.853Z,13.47
2019-05-01T20:07:00.092Z,13.14
2019-05-01T20:09:30.853Z,13.02
2019-05-01T20:12:02.051Z,13.25
2019-05-01T20:14:31.827Z,13.39
2019-05-01T20:17:04.734Z,13.22
2019-05-01T20:19:33.564Z,13.16
2019-05-01T20:22:03.382Z,13.19
2019-05-01T20:24:33.159Z,12.89
2019-05-01T20:27:03.269Z,13.01
2019-05-01T20:29:32.878Z,13.07
2019-05-01T20:32:02.786Z,12.92
2019-05-01T21:21:31.618Z,12.43
2019-05-01T21:24:03.553Z,12.60
2019-05-01T21:26:34.280Z,12.58
2019-05-01T21:29:04.363Z,12.40
2019-05-01T21:31:34.255Z,12.63
2019-05-01T21:34:04.822Z,12.64
2019-05-01T21:36:37.452Z,12.95
2019-05-01T21:39:07.207Z,12.80
2019-05-01T21:41:36.835Z,12.92
2019-05-01T21:44:07.035Z,12.64
2019-05-01T21:46:39.114Z,12.55
2019-05-01T21:49:08.166Z,12.61
2019-05-01T21:51:42.309Z,12.61
2019-05-01T21:54:09.813Z,12.41
2019-05-01T21:56:41.574Z,12.39
2019-05-01T21:59:11.751Z,12.33
2019-05-01T22:01:41.748Z,12.67
2019-05-01T22:04:11.537Z,12.64
2019-05-01T22:06:41.853Z,12.58
2019-05-01T22:09:15.217Z,12.71
2019-05-01T22:11:46.375Z,12.59
2019-05-01T22:14:20.196Z,12.54
2019-05-01T22:16:53.197Z,12.68
2019-05-01T22:19:24.586Z,12.53
2019-05-01T22:22:02.885Z,12.39
2019-05-01T22:24:40.650Z,12.44
2019-05-01T22:27:12.283Z,12.69
2019-05-01T22:29:43.638Z,12.67
2019-05-01T22:32:32.350Z,12.61
2019-05-01T22:35:17.992Z,12.78
2019-05-01T22:37:48.270Z,12.61
2019-05-01T22:40:19.785Z,12.54
2019-05-01T22:42:49.608Z,12.48
2019-05-01T22:45:23.025Z,12.63
2019-05-01T22:47:52.777Z,12.45
2019-05-01T22:50:25.458Z,12.53
2019-05-01T22:52:55.804Z,12.47
2019-05-01T22:55:26.749Z,12.49
2019-05-01T22:57:56.441Z,12.60
2019-05-01T23:00:30.068Z,12.45
2019-05-01T23:03:05.571Z,12.38
2019-05-01T23:05:33.050Z,12.42
2019-05-01T23:08:04.908Z,12.41
2019-05-01T23:10:34.687Z,12.46
2019-05-01T23:13:05.563Z,12.23
2019-05-01T23:15:35.481Z,11.96
2019-05-01T23:18:24.571Z,11.88
2019-05-01T23:20:54.298Z,11.91
2019-05-01T23:23:24.343Z,12.20
2019-05-01T23:25:54.051Z,11.80
2019-05-01T23:28:24.722Z,11.98
2019-05-01T23:30:55.349Z,12.07
2019-05-01T23:33:24.959Z,12.21
2019-05-01T23:35:54.694Z,12.37
2019-05-01T23:38:24.290Z,12.22
2019-05-01T23:40:54.068Z,12.10
2019-05-01T23:43:27.877Z,12.01
2019-05-01T23:45:55.212Z,12.16
2019-05-01T23:48:24.819Z,12.32
2019-05-01T23:50:54.605Z,12.29
2019-05-01T23:53:24.363Z,12.41
2019-05-01T23:55:54.541Z,12.25
2019-05-01T23:58:25.384Z,12.34
